Aviation Digital Data Service (ADDS)

Output produced by METARs form (1812 UTC 14 August 2018)
found at http://www.aviationweather.gov/adds/metars/
 
TAF RJSK 141715Z 1418/1600 14004KT 8000 -SHRA FEW010 BKN020 BKN030 
     TEMPO 1418/1422 2000 -SHRA BR FEW002 BKN005 BKN008 
     BECMG 1422/1500 25005KT 
     TEMPO 1422/1506 4000 -SHRA BR FEW005 BKN008 BKN020 
     TEMPO 1506/1512 3000 TSRA BR FEW005 BKN008 BKN020 FEW020CB 
     TEMPO 1512/1600 1500 SHRA BR FEW002 BKN005 BKN008
       
TAF RJSA 141705Z 1418/1600 25008KT 8000 -SHRA FEW010 BKN020 BKN030 
     TEMPO 1418/1421 1500 SHRA BR FEW001 BKN003 BKN005 
     TEMPO 1421/1503 4000 -SHRA BR FEW002 BKN005 BKN008 
     TEMPO 1503/1512 3000 SHRA BR FEW002 BKN005 BKN008 
     TEMPO 1512/1600 4000 SHRA BR FEW005 BKN008 BKN020
       
TAF RJEC 141712Z 1418/1600 31005KT 9999 FEW005 BKN015 
     TEMPO 1418/1500 2000 BR FEW002 BKN005 
     TEMPO 1503/1512 3000 SHRA BR FEW003 BKN006 
     TEMPO 1512/1518 4000 -SHRA BR FEW005 BKN008 
     TEMPO 1518/1600 3000 SHRA BR FEW002 BKN005
       
RJFF 141800Z AUTO 04004KT 9999 FEW037 29/22 Q1006 NOSIG RMK A2972
TAF RJFF 141709Z 1418/1600 01010KT 8000 -SHRA FEW006 SCT010 BKN020 
     TEMPO 1421/1500 4000 -SHRA BR 
     BECMG 1423/1501 18013KT 
     TEMPO 1500/1503 18015G25KT 3000 SHRA BR
       
TAF RJSF 141707Z 1418/1600 18005KT 9999 FEW020 SCT030 
     TEMPO 1418/1422 4000 BR FEW005 BKN008 BKN015 
     TEMPO 1503/1509 4000 TSRA BR FEW010 BKN030 FEW030CB
       
ROTM 141756Z 14009KT 9999 SCT016 BKN024 26/26 A2949 RMK SLP970 STNPR29190 T02670256 10278 20267 56015
TAF ROTM 1409/1509 10014G22KT 9999 SCT015 BKN020 BKN025 QNH2954INS 
     TEMPO 1414/1416 18017G25KT 3200 SHRA BR SCT010 BKN015 OVC025 
     FM141700 18016G25KT 9999 NSW SCT010 BKN020 BKN100 QNH2960INS 
     TEMPO 1423/1501 8000 -SHRA BR BKN015 T27/1421Z T31/1504Z
       
RJNG 141749Z 08006KT 9999 FEW025 SCT050 26/23 Q1014 RMK 1CU025 3SC050 A2995
TAF RJCH 141717Z 1418/1600 35003KT 9999 FEW008 BKN015 
     TEMPO 1418/1421 4000 -SHRA BR FEW005 BKN008 
     TEMPO 1506/1512 3000 SHRA BR BKN008 BKN025 FEW025CB 
     BECMG 1512/1515 15005KT 
     TEMPO 1512/1515 3000 -SHRA BR
       
RJOA 141300Z 08011KT 9999 FEW025 28/19 Q1013
TAF RJOA 141705Z 1418/1600 09010KT 9999 FEW020 SCT030 BKN040
       
RJAH 141800Z 21007KT 9999 FEW015 BKN/// 26/25 Q1013
TAF RJAH 141707Z 1418/1600 22008KT 9999 FEW010 SCT020 
     BECMG 1521/1600 20018KT
       
TAF ROIG 141712Z 1418/1600 26006KT 9999 FEW010 BKN020 
     TEMPO 1421/1500 4000 SHRA FEW008 BKN015 FEW020CB 
     TEMPO 1500/1509 2000 +TSRA FEW006 BKN010 SCT020CB 
     TEMPO 1518/1600 3000 SHRA FEW008 BKN015 FEW020CB
       
RJOI 141755Z 03010KT 9999 BKN060 29/22 A2978 RMK SLP085 T02940222 10317 20294 56007
TAF RJOI 1415/1515 03007KT 9999 FEW030 QNH2974INS 
     BECMG 1416/1418 06009KT 9999 FEW020 SCT030 SCT140 621608 520003 QNH2974INS 
     TEMPO 1418/1500 08018G26KT 9000 -SHRA BR BKN030 
     FM150000 11010KT 8000 -SHRA BR VCTS FEW015 BKN025CB BKN050 OVC120 621609 510003 QNH2973INS 
     FM150900 16010KT 8000 -SHRA BR VCTS FEW015 BKN025CB BKN050 OVC120 621609 510003 QNH2973INS 
     TEMPO 1509/1515 17010G16KT 6000 SHRA T28/1420Z T31/1506Z
       
RJAW 141800Z 08010KT 8000 BKN010 BKN100 27/26 Q1013 RMK 5CU010 7AC100 A2991
TAF RJOC 141705Z 1418/1600 08008KT 9999 FEW030
       
RODN 141756Z AUTO 13009KT 8SM RA FEW002 FEW012 BKN022 BKN038 27/25 A2948 RMK AO2 DZE03DZB07E10RAB10E20RAB52 CIG 022V038 BKN022 V FEW CIG 014 RWY23 SLP988 P0000 60000 T02690253 10280 20267 57018 $
TAF AMD RODN 141750Z 1417/1522 10012G18KT 9000 -SHRA BKN020 QNH2947INS 
     TEMPO 1417/1418 BKN015 
     TEMPO 1418/1424 4800 VCTS BKN015CB TX31/1510Z TN26/1417Z
       
TAF RJFK 141711Z 1418/1600 15007KT 7000 -SHRA FEW005 SCT010 BKN015 
     TEMPO 1421/1506 3000 SHRA BR FEW003 BKN005 BKN010 
     TEMPO 1506/1512 4000 -SHRA BR
       
RJBB 141800Z AUTO VRB01KT 9999 -RA FEW041 BKN043 BKN044 28/24 Q1012 NOSIG
TAF RJBB 141706Z 1418/1600 10004KT 9999 FEW025 BKN050 
     BECMG 1503/1505 22007KT
       
RJFR 141800Z 03006KT 9999 FEW025 SCT050 BKN070 29/23 Q1007
TAF RJFR 141706Z 1418/1600 04010KT 7000 -SHRA FEW005 SCT010 BKN015 
     BECMG 1419/1421 06025G35KT 
     TEMPO 1420/1500 3000 SHRA BR 
     BECMG 1421/1423 16025G35KT 
     TEMPO 1500/1502 4000 -SHRA BR 
     BECMG 1502/1504 17009KT
       
TAF RJOK 141712Z 1418/1600 12012KT 8000 -SHRA FEW008 SCT015 BKN025 
     TEMPO 1421/1503 1500 +TSRA BR FEW003 BKN008 BKN015 FEW020CB 
     TEMPO 1503/1509 2000 +SHRA BR FEW003 BKN008 BKN015 FEW020CB 
     TEMPO 1509/1515 3000 SHRA BR 
     TEMPO 1515/1521 3000 SHRA BR FEW003 BKN009 BKN015
       
RJNK 141800Z 07003KT 9999 FEW030 26/22 Q1012
TAF RJNK 141705Z 1418/1600 22006KT 9999 FEW030 
     BECMG 1518/1521 20018KT 
     TEMPO 1521/1600 22025G35KT
       
TAF RJFT 141712Z 1418/1600 03012KT 7000 -SHRA FEW008 SCT015 BKN025 
     BECMG 1418/1420 26016KT 
     TEMPO 1419/1422 26020G30KT 1500 +SHRA BR 
     BECMG 1420/1422 19011KT 
     TEMPO 1422/1501 3000 SHRA BR 
     BECMG 1506/1509 06007KT
       
TAF RJCK 141714Z 1418/1600 03008KT 9999 FEW003 BKN015 
     TEMPO 1418/1501 1500 -SHRA BR FEW001 BKN003 
     BECMG 1503/1505 17006KT 
     TEMPO 1506/1515 1500 SHRA BR FEW001 BKN003 
     BECMG 1509/1512 03008KT 
     TEMPO 1515/1600 3000 -SHRA BR FEW002 BKN005
       
TAF RJOM 141706Z 1418/1600 36005KT 9999 FEW020 SCT040 BKN050
       
TAF RJCM 141720Z 1418/1600 01005KT 9999 FEW006 BKN015 
     TEMPO 1418/1500 3000 -SHRA BR FEW003 BKN006 
     TEMPO 1500/1506 FEW005 BKN008 
     TEMPO 1506/1512 3000 SHRA BR FEW002 BKN005 
     TEMPO 1512/1518 1500 -SHRA BR FEW002 BKN005 
     TEMPO 1518/1600 3000 -SHRA BR FEW005 BKN008
       
RJOH 141800Z 13005KT 100V160 9999 FEW050 28/19 Q1010
TAF RJOH 141706Z 1418/1600 08007KT 9999 FEW030
       
TAF RJFM 141714Z 1418/1600 20014KT 6000 -SHRA FEW008 SCT010 BKN015 
     TEMPO 1418/1500 1500 +SHRA BR FEW003 SCT005 BKN008 
     BECMG 1422/1500 15014KT 
     TEMPO 1500/1509 3000 SHRA BR FEW003 SCT005 BKN008 
     BECMG 1509/1512 23003KT 
     TEMPO 1509/1518 3000 SHRA BR
       
TAF RJFU 141706Z 1418/1600 32005KT 9999 -SHRA FEW008 BKN015 BKN025 
     BECMG 1421/1423 18014KT 
     TEMPO 1423/1506 19015G28KT
       
ROAH 141800Z 15013KT 9999 -SHRA FEW005 SCT015 BKN040 26/24 Q0997 RMK 2ST005 3CU015 7SC040 A2946
TAF ROAH 141708Z 1418/1600 10006KT 9999 -SHRA FEW010 BKN025 
     TEMPO 1418/1420 4000 SHRA FEW010 BKN015 FEW020CB 
     BECMG 1419/1421 16016KT 
     TEMPO 1420/1502 18022G34KT 2000 +TSRA FEW008 BKN010 SCT020CB 
     TEMPO 1502/1512 18022G34KT 4000 SHRA FEW010 BKN015 FEW020CB
       
RJCC 141800Z VRB02KT 3000 -SHRA BR FEW002 BKN003 BKN004 20/20 Q1011 RMK 2ST002 5ST003 7ST004 A2986
TAF RJCC 141706Z 1418/1600 17012KT 9999 FEW005 BKN015 
     TEMPO 1418/1421 1500 -SHRA BR FEW001 BKN003 
     TEMPO 1421/1506 3000 -SHRA BR FEW002 BKN005 
     TEMPO 1506/1515 2000 SHRA BR FEW002 BKN004 
     TEMPO 1515/1600 4000 SHRA BR FEW003 BKN006
       
RJAA 141800Z 21007KT 170V240 9999 FEW030 26/24 Q1013 NOSIG RMK 1CU030 A2994
TAF RJAA 141706Z 1418/1600 20010KT 9999 FEW030
       
TAF RJSN 141708Z 1418/1600 18006KT 9999 FEW020 SCT080 
     BECMG 1504/1506 32006KT 
     BECMG 1509/1512 16004KT 
     BECMG 1515/1518 20006KT 
     TEMPO 1518/1600 4000 -SHRA BR
       
TAF RJCB 141709Z 1418/1600 36003KT 9999 FEW005 BKN015 
     TEMPO 1418/1421 1500 -SHRA BR FEW001 BKN003 
     TEMPO 1421/1506 3000 -SHRA BR FEW002 BKN005 
     BECMG 1502/1504 14007KT 
     TEMPO 1506/1515 2000 SHRA BR FEW002 BKN004 
     TEMPO 1515/1600 3000 -SHRA BR FEW002 BKN005
       
RJFO 141300Z 23003KT 170V250 9999 FEW035 SCT060 BKN/// 27/24 Q1009
TAF RJFO 141709Z 1418/1600 03016KT 7000 -SHRA FEW005 SCT010 BKN015 
     BECMG 1418/1420 12030G40KT 
     TEMPO 1418/1500 3000 SHRA BR FEW005 BKN008 BKN015 
     BECMG 1423/1501 15013KT 
     BECMG 1518/1521 25004KT
       
TAF RJOB 141707Z 1418/1600 07009KT 9999 FEW015 BKN045
       
TAF RJOO 141708Z 1418/1600 08008KT 9999 FEW025 SCT040
       
RJFS 141800Z 03007KT 9999 FEW035 SCT050 BKN160 29/23 Q1005
TAF RJFS 141710Z 1418/1600 01007KT 6000 -SHRA FEW008 SCT010 BKN025 
     BECMG 1419/1421 23016KT 
     TEMPO 1421/1500 23018G28KT 3000 SHRA BR 
     TEMPO 1500/1503 4000 -SHRA BR 
     BECMG 1515/1518 03010KT
       
TAF RJSS 141709Z 1418/1600 24004KT 9999 FEW010 SCT040 
     BECMG 1421/1423 13008KT 
     TEMPO 1505/1509 4000 TSRA BR FEW010 BKN030 FEW030CB 
     BECMG 1512/1515 26004KT 
     BECMG 1521/1600 16008KT
       
TAF RJOT 141707Z 1418/1600 09005KT 9999 FEW020 BKN050
       
RJOS 141537Z 16016KT 6000 -SHRA FEW008 BKN025 BKN050 26/25 Q1012 RMK 2ST008 5CU025 7SC050 A2989
RJTT 141800Z 20013KT 9999 FEW015 SCT/// 28/24 Q1013 NOSIG RMK 1CU015 A2993
TAF RJTT 141705Z 1418/1600 20014KT 9999 FEW015 
     TEMPO 1521/1600 20024G34KT
       
TAF RJNT 141705Z 1418/1600 18010KT 9999 FEW030 
     BECMG 1503/1505 32008KT 
     BECMG 1509/1512 18004KT
       
RJTY 141756Z AUTO 00000KT 10SM CLR 26/21 A2998 RMK AO2 SLP147 T02580212 10284 20254 55003 FZRANO $
TAF RJTY 141300Z 1413/1519 VRB06KT 9999 FEW030 QNH2992INS 
     BECMG 1502/1503 18012G20KT 9999 SCT040 QNH2984INS WND 18009KT AFT 1512 TX33/1503Z TN23/1419Z LAST NO AMDS AFT 1413 NEXT 1421
       
ROYN 141800Z AUTO 21007KT 9999 -RA FEW032 SCT040 BKN050 //////TCU 27/26 Q0999
RORY 141800Z AUTO 14016KT 9999 SCT012 BKN024 27/26 Q1000